createdAt,value
2017-11-21T00:00:39.338Z,0.00
2017-11-21T00:01:39.333Z,0.00
2017-11-21T00:02:39.330Z,0.00
2017-11-21T00:03:39.328Z,0.00
2017-11-21T00:04:39.324Z,0.00
2017-11-21T00:05:39.322Z,0.00
2017-11-21T00:06:39.318Z,0.00
2017-11-21T00:07:39.315Z,0.00
2017-11-21T00:08:39.312Z,0.00
2017-11-21T00:09:39.307Z,0.00
2017-11-21T00:10:39.306Z,0.00
2017-11-21T00:11:39.303Z,0.00
2017-11-21T00:12:39.302Z,0.00
2017-11-21T00:13:39.296Z,0.00
2017-11-21T00:14:39.294Z,0.00
2017-11-21T00:15:39.290Z,0.00
2017-11-21T00:16:39.288Z,0.00
2017-11-21T00:17:39.284Z,0.00
2017-11-21T00:18:39.282Z,0.00
2017-11-21T00:19:39.278Z,0.00
2017-11-21T00:20:39.275Z,0.00
2017-11-21T00:21:39.272Z,0.00
2017-11-21T00:22:39.269Z,0.00
2017-11-21T00:23:39.266Z,0.00
2017-11-21T00:24:39.265Z,0.00
2017-11-21T00:25:39.259Z,0.00
2017-11-21T00:26:39.259Z,0.00
2017-11-21T00:27:39.255Z,0.00
2017-11-21T00:28:39.256Z,0.00
2017-11-21T00:29:39.249Z,0.00
2017-11-21T00:30:39.246Z,0.00
2017-11-21T00:31:39.245Z,0.00
2017-11-21T00:32:39.240Z,0.00
2017-11-21T00:33:39.237Z,0.00
2017-11-21T00:34:39.237Z,0.00
2017-11-21T00:35:39.232Z,0.00
2017-11-21T00:36:39.229Z,0.00
2017-11-21T00:37:39.224Z,0.00
2017-11-21T00:38:39.221Z,0.00
2017-11-21T00:39:39.218Z,0.00
2017-11-21T00:40:39.218Z,0.00
2017-11-21T00:41:39.213Z,0.00
2017-11-21T00:42:39.210Z,0.00
2017-11-21T00:43:39.213Z,0.00
2017-11-21T00:44:39.207Z,0.00
2017-11-21T00:45:39.201Z,0.00
2017-11-21T00:46:39.200Z,0.00
2017-11-21T00:47:39.196Z,0.00
2017-11-21T00:48:39.194Z,0.00
2017-11-21T00:49:39.189Z,0.00
2017-11-21T00:50:39.187Z,0.00
2017-11-21T00:51:39.184Z,0.00
2017-11-21T00:52:39.180Z,0.00
2017-11-21T00:53:39.178Z,0.00
2017-11-21T00:54:39.175Z,0.00
2017-11-21T00:55:39.173Z,0.00
2017-11-21T00:56:39.170Z,0.00
2017-11-21T00:57:39.165Z,0.00
2017-11-21T00:58:39.163Z,0.00
2017-11-21T00:59:39.161Z,0.00
2017-11-21T01:00:39.159Z,0.00
2017-11-21T01:01:39.156Z,0.00
2017-11-21T01:02:39.152Z,0.00
2017-11-21T01:03:39.149Z,0.00
2017-11-21T01:04:39.146Z,0.00
2017-11-21T01:05:39.143Z,0.00
2017-11-21T01:06:39.150Z,0.00
2017-11-21T01:07:39.139Z,0.00
2017-11-21T01:08:39.135Z,0.00
2017-11-21T01:09:39.132Z,0.00
2017-11-21T01:10:39.129Z,0.00
2017-11-21T01:11:39.127Z,0.00
2017-11-21T01:12:39.122Z,0.00
2017-11-21T01:13:39.121Z,0.00
2017-11-21T01:14:39.118Z,0.00
2017-11-21T01:15:39.117Z,0.00
2017-11-21T01:16:39.112Z,0.00
2017-11-21T01:17:39.109Z,0.00
2017-11-21T01:18:39.106Z,0.00
2017-11-21T01:19:39.105Z,0.00
2017-11-21T01:20:39.105Z,0.00
2017-11-21T01:21:39.098Z,0.00
2017-11-21T01:22:39.095Z,0.00
2017-11-21T01:23:39.094Z,0.00
2017-11-21T01:24:39.098Z,0.00
2017-11-21T01:25:39.087Z,0.00
2017-11-21T01:26:39.085Z,0.00
2017-11-21T01:27:39.083Z,0.00
2017-11-21T01:28:39.081Z,0.00
2017-11-21T01:29:39.077Z,0.00
2017-11-21T01:30:39.074Z,0.00
2017-11-21T01:31:39.071Z,0.00
2017-11-21T01:32:39.080Z,0.00
2017-11-21T01:33:39.067Z,0.00
2017-11-21T01:34:39.062Z,0.00
2017-11-21T01:35:39.060Z,0.00
2017-11-21T01:36:39.058Z,0.00
2017-11-21T01:37:39.053Z,0.00
2017-11-21T01:38:39.052Z,0.00
2017-11-21T01:39:39.050Z,0.00
2017-11-21T01:40:39.048Z,0.00
2017-11-21T01:41:39.044Z,0.00
2017-11-21T01:42:39.042Z,0.00
2017-11-21T01:43:39.037Z,0.00
2017-11-21T01:44:39.036Z,0.00
2017-11-21T01:45:39.034Z,0.00
2017-11-21T01:46:39.031Z,0.00
2017-11-21T01:47:39.031Z,0.00
2017-11-21T01:48:39.028Z,0.00
2017-11-21T01:49:39.025Z,0.00
2017-11-21T01:50:39.023Z,0.00
2017-11-21T01:51:39.017Z,0.00
2017-11-21T01:52:39.016Z,0.00
2017-11-21T01:53:39.013Z,0.00
2017-11-21T01:54:39.009Z,0.00
2017-11-21T01:55:39.008Z,0.00
2017-11-21T01:56:39.005Z,0.00
2017-11-21T01:57:39.001Z,0.00
2017-11-21T01:58:39.001Z,0.00
2017-11-21T01:59:38.998Z,0.00
2017-11-21T02:00:38.994Z,0.00
2017-11-21T02:01:38.990Z,0.00
2017-11-21T02:02:38.988Z,0.00
2017-11-21T02:03:38.987Z,0.00
2017-11-21T02:04:38.983Z,0.00
2017-11-21T02:05:38.979Z,0.00
2017-11-21T02:06:38.985Z,0.00
2017-11-21T02:07:38.974Z,0.00
2017-11-21T02:08:38.975Z,0.00
2017-11-21T02:09:38.970Z,0.00
2017-11-21T02:10:38.968Z,0.00
2017-11-21T02:11:38.965Z,0.00
2017-11-21T02:12:38.964Z,0.00
2017-11-21T02:13:38.970Z,0.00
2017-11-21T02:14:38.958Z,0.00
2017-11-21T02:15:38.955Z,0.00
2017-11-21T02:16:38.952Z,0.00
2017-11-21T02:17:38.950Z,0.00
2017-11-21T02:18:38.949Z,0.00
2017-11-21T02:19:38.946Z,0.00
2017-11-21T02:20:38.943Z,0.00
2017-11-21T02:21:38.939Z,0.00
2017-11-21T02:22:38.937Z,0.00
2017-11-21T02:23:38.935Z,0.00
2017-11-21T02:24:38.934Z,0.00
2017-11-21T02:25:38.929Z,0.00
2017-11-21T02:26:38.926Z,0.00
2017-11-21T02:27:38.926Z,0.00
2017-11-21T02:28:38.921Z,0.00
2017-11-21T02:29:38.918Z,0.00
2017-11-21T02:30:38.917Z,0.00
2017-11-21T02:31:38.915Z,0.00
2017-11-21T02:32:38.912Z,0.00
2017-11-21T02:33:38.908Z,0.00
2017-11-21T02:34:38.907Z,0.00
2017-11-21T02:35:38.904Z,0.00
2017-11-21T02:36:38.901Z,0.00
2017-11-21T02:37:38.896Z,0.00
2017-11-21T02:38:38.894Z,0.00
2017-11-21T02:39:38.894Z,0.00
2017-11-21T02:40:38.890Z,0.00
2017-11-21T02:41:38.887Z,0.00
2017-11-21T02:42:38.885Z,0.00
2017-11-21T02:43:38.883Z,0.00
2017-11-21T02:44:38.882Z,0.00
2017-11-21T02:45:38.878Z,0.00
2017-11-21T02:46:38.875Z,0.00
2017-11-21T02:47:38.872Z,0.00
2017-11-21T02:48:38.869Z,0.00
2017-11-21T02:49:38.866Z,0.00
2017-11-21T02:50:38.863Z,0.00
2017-11-21T02:51:38.862Z,0.00
2017-11-21T02:52:38.860Z,0.00
2017-11-21T02:53:38.855Z,0.00
2017-11-21T02:54:38.852Z,0.00
2017-11-21T02:55:38.853Z,0.00
2017-11-21T02:56:38.848Z,0.00
2017-11-21T02:57:38.846Z,0.00
2017-11-21T02:58:38.841Z,0.00
2017-11-21T02:59:38.840Z,0.00
2017-11-21T03:00:38.837Z,0.00
2017-11-21T03:01:38.834Z,0.00
2017-11-21T03:02:38.831Z,0.00
2017-11-21T03:03:38.828Z,0.00
2017-11-21T03:04:38.827Z,0.00
2017-11-21T03:05:38.822Z,0.00
2017-11-21T03:06:38.819Z,0.00
2017-11-21T03:07:38.817Z,0.00
2017-11-21T03:08:38.817Z,0.00
2017-11-21T03:09:38.812Z,0.00
2017-11-21T03:10:38.811Z,0.00
2017-11-21T03:11:38.806Z,0.00
2017-11-21T03:12:38.806Z,0.00
2017-11-21T03:13:38.803Z,0.00
2017-11-21T03:14:38.799Z,0.00
2017-11-21T03:15:38.798Z,0.00
2017-11-21T03:16:38.795Z,0.00
2017-11-21T03:17:38.791Z,0.00
2017-11-21T03:18:38.789Z,0.00
2017-11-21T03:19:38.787Z,0.00
2017-11-21T03:20:38.785Z,0.00
2017-11-21T03:21:38.781Z,0.00
2017-11-21T03:22:38.778Z,0.00
2017-11-21T03:23:38.780Z,0.00
2017-11-21T03:24:38.775Z,0.00
2017-11-21T03:25:38.769Z,0.00
2017-11-21T03:26:38.768Z,0.00
2017-11-21T03:27:38.765Z,0.00
2017-11-21T03:28:38.770Z,0.00
2017-11-21T03:29:38.762Z,0.00
2017-11-21T03:30:38.757Z,0.00
2017-11-21T03:31:38.754Z,0.00
2017-11-21T03:32:38.753Z,0.00
2017-11-21T03:33:38.749Z,0.00
2017-11-21T03:34:38.746Z,0.00
2017-11-21T03:35:38.745Z,0.00
2017-11-21T03:36:38.742Z,0.00
2017-11-21T03:37:38.738Z,0.00
2017-11-21T03:38:38.735Z,0.00
2017-11-21T03:39:38.732Z,0.00
2017-11-21T03:40:38.731Z,0.00
2017-11-21T03:41:38.728Z,0.00
2017-11-21T03:42:38.726Z,0.00
2017-11-21T03:43:38.723Z,0.00
2017-11-21T03:44:38.719Z,0.00
2017-11-21T03:45:38.716Z,0.00
2017-11-21T03:46:38.716Z,0.00
2017-11-21T03:47:38.714Z,0.00
2017-11-21T03:48:38.709Z,0.00
2017-11-21T03:49:38.706Z,0.00
2017-11-21T03:50:38.703Z,0.00
2017-11-21T03:51:38.702Z,0.00
2017-11-21T03:52:38.698Z,0.00
2017-11-21T03:53:38.696Z,0.00
2017-11-21T03:54:38.692Z,0.00
2017-11-21T03:55:38.691Z,0.00
2017-11-21T03:56:38.688Z,0.00
2017-11-21T03:57:38.690Z,0.00
2017-11-21T03:58:38.688Z,0.00
2017-11-21T03:59:38.680Z,0.00
2017-11-21T04:00:38.678Z,0.00
2017-11-21T04:01:38.675Z,0.00
2017-11-21T04:02:38.674Z,0.00
2017-11-21T04:03:38.671Z,0.00
2017-11-21T04:04:38.669Z,0.00
2017-11-21T04:05:38.686Z,0.00
2017-11-21T04:06:38.663Z,0.00
2017-11-21T04:07:38.659Z,0.00
2017-11-21T04:08:38.657Z,0.00
2017-11-21T04:09:38.654Z,0.00
2017-11-21T04:10:38.653Z,0.00
2017-11-21T04:11:38.650Z,0.00
2017-11-21T04:12:38.647Z,0.00
2017-11-21T04:13:38.646Z,0.00
2017-11-21T04:14:38.642Z,0.00
2017-11-21T04:15:38.639Z,0.00
2017-11-21T04:16:38.637Z,0.00
2017-11-21T04:17:38.633Z,0.00
2017-11-21T04:18:38.632Z,0.00
2017-11-21T04:19:38.631Z,0.00
2017-11-21T04:20:38.628Z,0.00
2017-11-21T04:21:38.623Z,0.00
2017-11-21T04:22:38.621Z,0.00
2017-11-21T04:23:38.620Z,0.00
2017-11-21T04:24:38.618Z,0.00
2017-11-21T04:25:38.612Z,0.00
2017-11-21T04:26:38.611Z,0.00
2017-11-21T04:27:38.609Z,0.00
2017-11-21T04:28:38.606Z,0.00
2017-11-21T04:29:38.605Z,0.00
2017-11-21T04:30:38.602Z,0.00
2017-11-21T04:31:38.600Z,0.00
2017-11-21T04:32:38.597Z,0.00
2017-11-21T04:33:38.593Z,0.00
2017-11-21T04:34:38.596Z,0.00
2017-11-21T04:35:38.592Z,0.00
2017-11-21T04:36:38.587Z,0.00
2017-11-21T04:37:38.584Z,0.00
2017-11-21T04:38:38.582Z,0.00
2017-11-21T04:39:38.580Z,0.00
2017-11-21T04:40:38.577Z,0.00
2017-11-21T04:41:38.572Z,0.00
2017-11-21T04:42:38.572Z,0.00
2017-11-21T04:43:38.578Z,0.00
2017-11-21T04:44:38.568Z,0.00
2017-11-21T04:45:38.564Z,0.00
2017-11-21T04:46:38.587Z,0.00
2017-11-21T04:47:38.559Z,0.00
2017-11-21T04:48:38.559Z,0.00
2017-11-21T04:49:38.555Z,0.00
2017-11-21T04:50:38.552Z,0.00
2017-11-21T04:51:38.549Z,0.00
2017-11-21T04:52:38.549Z,0.00
2017-11-21T04:53:38.544Z,0.00
2017-11-21T04:54:38.543Z,0.00
2017-11-21T04:55:38.540Z,0.00
2017-11-21T04:56:38.538Z,0.00
2017-11-21T04:57:38.535Z,0.00
2017-11-21T04:58:38.532Z,0.00
2017-11-21T04:59:38.530Z,0.00
2017-11-21T05:00:38.528Z,0.00
2017-11-21T05:01:38.524Z,0.00
2017-11-21T05:02:38.526Z,0.00
2017-11-21T05:03:38.521Z,0.00
2017-11-21T05:04:38.519Z,0.00
2017-11-21T05:05:38.516Z,0.00
2017-11-21T05:06:38.514Z,0.00
2017-11-21T05:07:38.511Z,0.00
2017-11-21T05:08:38.510Z,0.00
2017-11-21T05:09:38.506Z,0.00
2017-11-21T05:10:38.504Z,0.00
2017-11-21T05:11:38.501Z,0.00
2017-11-21T05:12:38.500Z,0.00
2017-11-21T05:13:38.504Z,0.00
2017-11-21T05:14:38.495Z,0.00
2017-11-21T05:15:38.492Z,0.00
2017-11-21T05:16:38.490Z,0.00
2017-11-21T05:17:38.487Z,0.00
2017-11-21T05:18:38.486Z,0.00
2017-11-21T05:19:38.484Z,0.00
2017-11-21T05:20:38.480Z,0.00
2017-11-21T05:21:38.478Z,0.00
2017-11-21T05:22:38.476Z,0.00
2017-11-21T05:23:38.473Z,0.00
2017-11-21T05:24:38.471Z,0.00
2017-11-21T05:25:38.468Z,0.00
2017-11-21T05:26:38.468Z,0.00
2017-11-21T05:27:38.465Z,0.00
2017-11-21T05:28:38.461Z,0.00
2017-11-21T05:29:38.460Z,0.00
2017-11-21T05:30:38.457Z,0.00
2017-11-21T05:31:38.456Z,0.00
2017-11-21T05:32:38.453Z,0.00
2017-11-21T05:33:38.449Z,0.00
2017-11-21T05:34:38.448Z,0.00
2017-11-21T05:35:38.446Z,0.00
2017-11-21T05:36:38.446Z,0.00
2017-11-21T05:37:38.441Z,0.00
2017-11-21T05:38:38.439Z,0.00
2017-11-21T05:39:38.435Z,0.00
2017-11-21T05:40:38.434Z,0.00
2017-11-21T05:41:38.430Z,0.00
2017-11-21T05:42:38.429Z,0.00
2017-11-21T05:43:38.427Z,0.00
2017-11-21T05:44:38.425Z,0.00
2017-11-21T05:45:38.422Z,0.00
2017-11-21T05:46:38.420Z,0.00
2017-11-21T05:47:38.416Z,0.00
2017-11-21T05:48:38.416Z,0.00
2017-11-21T05:49:38.412Z,0.00
2017-11-21T05:50:38.411Z,0.00
2017-11-21T05:51:38.409Z,0.00
2017-11-21T05:52:38.404Z,0.00
2017-11-21T05:53:38.403Z,0.00
2017-11-21T05:54:38.400Z,0.00
2017-11-21T05:55:38.399Z,0.00
2017-11-21T05:56:38.397Z,0.00
2017-11-21T05:57:38.394Z,0.00
2017-11-21T05:58:38.391Z,0.00
2017-11-21T05:59:38.388Z,0.00
2017-11-21T06:00:38.394Z,0.00
2017-11-21T06:01:38.384Z,0.00
2017-11-21T06:02:38.385Z,0.00
2017-11-21T06:03:38.381Z,0.00
2017-11-21T06:04:38.377Z,0.00
2017-11-21T06:05:38.376Z,0.00
2017-11-21T06:06:38.373Z,0.00
2017-11-21T06:07:38.371Z,0.00
2017-11-21T06:08:38.370Z,0.00
2017-11-21T06:09:38.367Z,0.00
2017-11-21T06:10:38.365Z,0.00
2017-11-21T06:11:38.361Z,0.00
2017-11-21T06:12:38.361Z,0.00
2017-11-21T06:13:38.361Z,0.00
2017-11-21T06:14:38.356Z,0.00
2017-11-21T06:15:38.353Z,0.00
2017-11-21T06:16:38.354Z,0.00
2017-11-21T06:17:38.350Z,0.00
2017-11-21T06:18:38.348Z,0.00
2017-11-21T06:19:38.347Z,0.00
2017-11-21T06:20:38.344Z,0.00
2017-11-21T06:21:38.341Z,0.00
2017-11-21T06:22:38.338Z,0.00
2017-11-21T06:23:38.338Z,0.00
2017-11-21T06:24:38.334Z,0.00
2017-11-21T06:25:38.331Z,0.00
2017-11-21T06:26:38.329Z,0.00
2017-11-21T06:27:38.329Z,0.00
2017-11-21T06:28:38.333Z,0.00
2017-11-21T06:29:38.325Z,0.00
2017-11-21T06:30:38.322Z,0.00
2017-11-21T06:31:38.319Z,0.00
2017-11-21T06:32:38.318Z,0.00
2017-11-21T06:33:38.314Z,0.00
2017-11-21T06:34:38.314Z,4.00
2017-11-21T06:35:38.311Z,4.00
2017-11-21T06:36:38.309Z,4.00
2017-11-21T06:37:38.308Z,4.00
2017-11-21T06:38:38.306Z,4.00
2017-11-21T06:39:38.304Z,4.00
2017-11-21T06:40:38.302Z,4.00
2017-11-21T06:41:38.299Z,4.00
2017-11-21T06:42:38.299Z,4.00
2017-11-21T06:43:38.296Z,8.00
2017-11-21T06:44:38.295Z,4.00
2017-11-21T06:45:38.292Z,4.00
2017-11-21T06:46:38.290Z,4.00
2017-11-21T06:47:38.289Z,4.00
2017-11-21T06:48:38.288Z,4.00
2017-11-21T06:49:38.285Z,8.00
2017-11-21T06:50:38.297Z,8.00
2017-11-21T06:51:38.283Z,8.00
2017-11-21T06:52:38.280Z,8.00
2017-11-21T06:53:38.276Z,4.00
2017-11-21T06:54:38.276Z,8.00
2017-11-21T06:55:38.273Z,8.00
2017-11-21T06:56:38.273Z,12.00
2017-11-21T06:57:38.269Z,12.00
2017-11-21T06:58:38.267Z,16.00
2017-11-21T06:59:38.265Z,16.00
2017-11-21T07:00:38.265Z,20.00
2017-11-21T07:01:38.261Z,20.00
2017-11-21T07:02:38.261Z,20.00
2017-11-21T07:03:38.257Z,28.00
2017-11-21T07:04:38.257Z,28.00
2017-11-21T07:05:38.254Z,32.00
2017-11-21T07:06:38.251Z,32.00
2017-11-21T07:07:38.251Z,32.00
2017-11-21T07:08:38.247Z,28.00
2017-11-21T07:09:38.249Z,32.00
2017-11-21T07:10:38.244Z,48.00
2017-11-21T07:11:38.252Z,52.00
2017-11-21T07:12:38.239Z,52.00
2017-11-21T07:13:38.236Z,64.00
2017-11-21T07:14:38.236Z,60.00
2017-11-21T07:15:38.234Z,72.00
2017-11-21T07:16:38.235Z,80.00
2017-11-21T07:17:38.230Z,84.00
2017-11-21T07:18:38.228Z,68.00
2017-11-21T07:19:38.227Z,80.00
2017-11-21T07:20:38.227Z,96.00
2017-11-21T07:21:38.224Z,120.00
2017-11-21T07:22:38.220Z,124.00
2017-11-21T07:23:38.225Z,156.00
2017-11-21T07:24:38.218Z,120.00
2017-11-21T07:25:38.214Z,120.00
2017-11-21T07:26:38.213Z,152.00
2017-11-21T07:27:38.220Z,140.00
2017-11-21T07:28:38.209Z,120.00
2017-11-21T07:29:38.206Z,144.00
2017-11-21T07:30:38.204Z,164.00
2017-11-21T07:31:38.203Z,160.00
2017-11-21T07:32:38.201Z,184.00
2017-11-21T07:33:38.198Z,212.00
2017-11-21T07:34:38.199Z,216.00
2017-11-21T07:35:38.196Z,220.00
2017-11-21T07:36:38.194Z,188.00
2017-11-21T07:37:38.189Z,192.00
2017-11-21T07:38:38.188Z,220.00
2017-11-21T07:39:38.188Z,212.00
2017-11-21T07:40:38.193Z,220.00
2017-11-21T07:41:38.184Z,204.00
2017-11-21T07:42:38.186Z,188.00
2017-11-21T07:43:38.185Z,232.00
2017-11-21T07:44:38.176Z,244.00
2017-11-21T07:45:38.175Z,296.00
2017-11-21T07:46:38.173Z,396.00
2017-11-21T07:47:38.171Z,420.00
2017-11-21T07:48:38.169Z,424.00
2017-11-21T07:49:38.166Z,380.00
2017-11-21T07:50:38.164Z,340.00
2017-11-21T07:51:38.163Z,388.00
2017-11-21T07:52:38.161Z,412.00
2017-11-21T07:53:38.158Z,384.00
2017-11-21T07:54:38.156Z,456.00
2017-11-21T07:55:38.155Z,460.00
2017-11-21T07:56:38.152Z,436.00
2017-11-21T07:57:38.153Z,436.00
2017-11-21T07:58:38.148Z,400.00
2017-11-21T07:59:38.145Z,336.00
2017-11-21T08:00:38.145Z,332.00
2017-11-21T08:01:38.142Z,272.00
2017-11-21T08:02:38.140Z,284.00
2017-11-21T08:03:38.141Z,404.00
2017-11-21T08:04:38.135Z,416.00
2017-11-21T08:05:38.132Z,516.00
2017-11-21T08:06:38.131Z,588.00
2017-11-21T08:07:38.130Z,604.00
2017-11-21T08:08:38.128Z,624.00
2017-11-21T08:09:38.124Z,824.00
2017-11-21T08:10:38.125Z,820.00
2017-11-21T08:11:38.119Z,892.00
2017-11-21T08:12:38.118Z,812.00
2017-11-21T08:13:38.120Z,776.00
2017-11-21T08:14:38.113Z,756.00
2017-11-21T08:15:38.113Z,824.00
2017-11-21T08:16:38.110Z,772.00
2017-11-21T08:17:38.107Z,640.00
2017-11-21T08:18:38.106Z,576.00
2017-11-21T08:19:38.108Z,648.00
2017-11-21T08:20:38.104Z,572.00
2017-11-21T08:21:38.098Z,528.00
2017-11-21T08:22:38.097Z,552.00
2017-11-21T08:23:38.096Z,644.00
2017-11-21T08:24:38.096Z,680.00
2017-11-21T08:25:38.090Z,688.00
2017-11-21T08:26:38.089Z,916.00
2017-11-21T08:27:38.088Z,816.00
2017-11-21T08:28:38.085Z,932.00
2017-11-21T08:29:38.084Z,648.00
2017-11-21T08:30:38.082Z,684.00
2017-11-21T08:31:38.081Z,732.00
2017-11-21T08:32:38.078Z,820.00
2017-11-21T08:33:38.074Z,908.00
2017-11-21T08:34:38.073Z,900.00
2017-11-21T08:35:38.072Z,908.00
2017-11-21T08:36:38.070Z,800.00
2017-11-21T08:37:38.068Z,584.00
2017-11-21T08:38:38.069Z,468.00
2017-11-21T08:39:38.065Z,440.00
2017-11-21T08:40:38.062Z,540.00
2017-11-21T08:41:38.060Z,788.00
2017-11-21T08:42:38.057Z,752.00
2017-11-21T08:43:38.057Z,916.00
2017-11-21T08:44:38.054Z,820.00
2017-11-21T08:45:38.053Z,884.00
2017-11-21T08:46:38.050Z,900.00
2017-11-21T08:47:38.048Z,1116.00
2017-11-21T08:48:38.048Z,1160.00
2017-11-21T08:49:38.044Z,812.00
2017-11-21T08:50:38.044Z,780.00
2017-11-21T08:51:38.043Z,804.00
2017-11-21T08:52:38.042Z,796.00
2017-11-21T08:53:38.039Z,856.00
2017-11-21T08:54:38.038Z,988.00
2017-11-21T08:55:38.035Z,1008.00
2017-11-21T08:56:38.037Z,1064.00
2017-11-21T08:57:38.031Z,868.00
2017-11-21T08:58:38.031Z,724.00
2017-11-21T08:59:38.027Z,684.00
2017-11-21T09:00:38.026Z,1028.00
2017-11-21T09:01:38.023Z,744.00
2017-11-21T09:02:38.023Z,768.00
2017-11-21T09:03:38.037Z,972.00
2017-11-21T09:04:38.018Z,976.00
2017-11-21T09:05:38.017Z,948.00
2017-11-21T09:06:38.014Z,1000.00
2017-11-21T09:07:38.013Z,900.00
2017-11-21T09:08:38.013Z,964.00
2017-11-21T09:09:38.010Z,1196.00
2017-11-21T09:10:38.008Z,1216.00
2017-11-21T09:11:38.007Z,1424.00
2017-11-21T09:12:38.005Z,1388.00
2017-11-21T09:13:38.002Z,1544.00
2017-11-21T09:14:38.001Z,1488.00
2017-11-21T09:15:38.001Z,1312.00
2017-11-21T09:16:37.999Z,1516.00
2017-11-21T09:17:37.995Z,1248.00
2017-11-21T09:18:38.002Z,1140.00
2017-11-21T09:19:37.994Z,1424.00
2017-11-21T09:20:37.992Z,1696.00
2017-11-21T09:21:37.989Z,1604.00
2017-11-21T09:22:37.990Z,1668.00
2017-11-21T09:23:37.989Z,1688.00
2017-11-21T09:24:37.985Z,1420.00
2017-11-21T09:25:37.984Z,1084.00
2017-11-21T09:26:37.982Z,1064.00
2017-11-21T09:27:37.981Z,856.00
2017-11-21T09:28:37.979Z,900.00
2017-11-21T09:29:37.979Z,728.00
2017-11-21T09:30:37.976Z,1024.00
2017-11-21T09:31:37.978Z,896.00
2017-11-21T09:32:37.984Z,892.00
2017-11-21T09:33:37.970Z,784.00
2017-11-21T09:34:37.970Z,788.00
2017-11-21T09:35:37.969Z,948.00
2017-11-21T09:36:37.974Z,980.00
2017-11-21T09:37:37.965Z,1128.00
2017-11-21T09:38:37.964Z,1308.00
2017-11-21T09:39:37.966Z,1152.00
2017-11-21T09:40:37.961Z,1340.00
2017-11-21T09:41:37.962Z,1108.00
2017-11-21T09:42:37.959Z,1260.00
2017-11-21T09:43:37.955Z,1232.00
2017-11-21T09:44:37.956Z,1048.00
2017-11-21T09:45:37.953Z,964.00
2017-11-21T09:46:37.962Z,1232.00
2017-11-21T09:47:37.950Z,1216.00
2017-11-21T09:48:37.949Z,1116.00
2017-11-21T09:49:37.948Z,1376.00
2017-11-21T09:50:37.946Z,1060.00
2017-11-21T09:51:37.944Z,988.00
2017-11-21T09:52:37.944Z,1060.00
2017-11-21T09:53:37.940Z,1172.00
2017-11-21T09:54:37.940Z,1236.00
2017-11-21T09:55:37.938Z,1360.00
2017-11-21T09:56:37.936Z,1540.00
2017-11-21T09:57:37.934Z,1576.00
2017-11-21T09:58:37.934Z,1372.00
2017-11-21T09:59:37.932Z,1308.00
2017-11-21T10:00:37.949Z,1656.00
2017-11-21T10:01:37.928Z,1668.00
2017-11-21T10:02:37.929Z,1460.00
2017-11-21T10:03:37.925Z,1360.00
2017-11-21T10:04:37.929Z,1348.00
2017-11-21T10:05:37.923Z,1272.00
2017-11-21T10:06:37.921Z,1452.00
2017-11-21T10:07:37.920Z,1460.00
2017-11-21T10:08:37.918Z,1384.00
2017-11-21T10:09:37.916Z,1484.00
2017-11-21T10:10:37.917Z,1536.00
2017-11-21T10:11:37.914Z,1424.00
2017-11-21T10:12:37.912Z,1252.00
2017-11-21T10:13:37.910Z,1164.00
2017-11-21T10:14:37.923Z,1636.00
2017-11-21T10:15:37.908Z,1676.00
2017-11-21T10:16:37.907Z,1616.00
2017-11-21T10:17:37.904Z,1584.00
2017-11-21T10:18:37.904Z,1620.00
2017-11-21T10:19:37.902Z,1564.00
2017-11-21T10:20:37.899Z,1124.00
2017-11-21T10:21:37.900Z,1008.00
2017-11-21T10:22:37.897Z,844.00
2017-11-21T10:23:37.897Z,760.00
2017-11-21T10:24:37.896Z,784.00
2017-11-21T10:25:37.892Z,816.00
2017-11-21T10:26:37.893Z,892.00
2017-11-21T10:27:37.891Z,1040.00
2017-11-21T10:28:37.913Z,1072.00
2017-11-21T10:29:37.887Z,1036.00
2017-11-21T10:30:37.896Z,1032.00
2017-11-21T10:31:37.887Z,1128.00
2017-11-21T10:32:37.885Z,1220.00
2017-11-21T10:33:37.884Z,1196.00
2017-11-21T10:34:37.882Z,1280.00
2017-11-21T10:35:37.881Z,1328.00
2017-11-21T10:36:37.881Z,1216.00
2017-11-21T10:37:37.877Z,996.00
2017-11-21T10:38:37.877Z,932.00
2017-11-21T10:39:37.876Z,872.00
2017-11-21T10:40:37.875Z,780.00
2017-11-21T10:41:37.872Z,736.00
2017-11-21T10:42:37.878Z,692.00
2017-11-21T10:43:37.872Z,756.00
2017-11-21T10:44:37.870Z,816.00
2017-11-21T10:45:37.868Z,836.00
2017-11-21T10:46:37.866Z,816.00
2017-11-21T10:47:37.864Z,804.00
2017-11-21T10:48:37.864Z,892.00
2017-11-21T10:49:37.862Z,876.00
2017-11-21T10:50:37.861Z,1132.00
2017-11-21T10:51:37.859Z,1144.00
2017-11-21T10:52:37.858Z,1136.00
2017-11-21T10:53:37.872Z,1164.00
2017-11-21T10:54:37.859Z,1252.00
2017-11-21T10:55:37.853Z,1164.00
2017-11-21T10:56:37.853Z,1116.00
2017-11-21T10:57:37.849Z,1108.00
2017-11-21T10:58:37.849Z,1072.00
2017-11-21T10:59:37.849Z,1128.00
2017-11-21T11:00:37.845Z,1128.00
2017-11-21T11:01:37.845Z,1100.00
2017-11-21T11:02:37.844Z,1092.00
2017-11-21T11:03:37.842Z,1156.00
2017-11-21T11:04:37.840Z,1056.00
2017-11-21T11:05:37.839Z,1160.00
2017-11-21T11:06:37.855Z,1212.00
2017-11-21T11:07:37.836Z,1200.00
2017-11-21T11:08:37.835Z,1196.00
2017-11-21T11:09:37.833Z,1220.00
2017-11-21T11:10:37.831Z,1276.00
2017-11-21T11:11:37.829Z,1348.00
2017-11-21T11:12:37.853Z,1352.00
2017-11-21T11:13:37.826Z,1408.00
2017-11-21T11:14:37.827Z,1400.00
2017-11-21T11:15:37.825Z,1620.00
2017-11-21T11:16:37.823Z,1516.00
2017-11-21T11:17:37.823Z,1596.00
2017-11-21T11:18:37.820Z,1400.00
2017-11-21T11:19:37.819Z,1508.00
2017-11-21T11:20:37.816Z,1524.00
2017-11-21T11:21:37.814Z,1316.00
2017-11-21T11:22:37.819Z,1264.00
2017-11-21T11:23:37.812Z,1156.00
2017-11-21T11:24:37.823Z,1340.00
2017-11-21T11:25:37.809Z,1444.00
2017-11-21T11:26:37.807Z,1736.00
2017-11-21T11:27:37.805Z,1960.00
2017-11-21T11:28:37.805Z,1732.00
2017-11-21T11:29:37.803Z,1748.00
2017-11-21T11:30:37.800Z,1832.00
2017-11-21T11:31:37.800Z,1584.00
2017-11-21T11:32:37.804Z,1436.00
2017-11-21T11:33:37.796Z,1260.00
2017-11-21T11:34:37.795Z,1280.00
2017-11-21T11:35:37.794Z,1344.00
2017-11-21T11:36:37.793Z,1312.00
2017-11-21T11:37:37.789Z,1396.00
2017-11-21T11:38:37.790Z,1424.00
2017-11-21T11:39:37.788Z,1716.00
2017-11-21T11:40:37.787Z,1460.00
2017-11-21T11:41:37.785Z,1244.00
2017-11-21T11:42:37.783Z,1344.00
2017-11-21T11:43:38.036Z,1372.00
2017-11-21T11:44:37.781Z,1236.00
2017-11-21T11:45:37.777Z,1396.00
2017-11-21T11:46:37.777Z,1464.00
2017-11-21T11:47:37.777Z,1416.00
2017-11-21T11:48:37.774Z,1420.00
2017-11-21T11:49:37.771Z,1304.00
2017-11-21T11:50:37.770Z,1104.00
2017-11-21T11:51:37.770Z,1276.00
2017-11-21T11:52:37.768Z,1196.00
2017-11-21T11:53:37.765Z,1388.00
2017-11-21T11:54:37.771Z,1484.00
2017-11-21T11:55:37.764Z,1388.00
2017-11-21T11:56:37.761Z,1272.00
2017-11-21T11:57:37.760Z,1332.00
2017-11-21T11:58:37.758Z,1372.00
2017-11-21T11:59:37.757Z,1232.00
2017-11-21T12:00:37.754Z,1164.00
2017-11-21T12:01:37.761Z,1212.00
2017-11-21T12:02:37.751Z,1120.00
2017-11-21T12:03:37.749Z,1308.00
2017-11-21T12:04:37.753Z,1228.00
2017-11-21T12:05:37.746Z,1124.00
2017-11-21T12:06:37.745Z,1076.00
2017-11-21T12:07:37.743Z,1164.00
2017-11-21T12:08:37.741Z,1144.00
2017-11-21T12:09:37.740Z,1104.00
2017-11-21T12:10:37.737Z,1076.00
2017-11-21T12:11:37.737Z,1016.00
2017-11-21T12:12:37.736Z,1072.00
2017-11-21T12:13:37.733Z,960.00
2017-11-21T12:14:37.732Z,952.00
2017-11-21T12:15:37.732Z,896.00
2017-11-21T12:16:37.729Z,908.00
2017-11-21T12:17:37.725Z,984.00
2017-11-21T12:18:37.726Z,952.00
2017-11-21T12:19:37.724Z,896.00
2017-11-21T12:20:37.721Z,984.00
2017-11-21T12:21:37.721Z,1004.00
2017-11-21T12:22:37.717Z,1000.00
2017-11-21T12:23:37.716Z,1004.00
2017-11-21T12:24:37.715Z,1012.00
2017-11-21T12:25:37.712Z,1104.00
2017-11-21T12:26:37.710Z,1008.00
2017-11-21T12:27:37.711Z,980.00
2017-11-21T12:28:37.709Z,1032.00
2017-11-21T12:29:37.707Z,1160.00
2017-11-21T12:30:37.705Z,1072.00
2017-11-21T12:31:37.704Z,996.00
2017-11-21T12:32:37.701Z,976.00
2017-11-21T12:33:37.699Z,1132.00
2017-11-21T12:34:37.700Z,1044.00
2017-11-21T12:35:37.698Z,1088.00
2017-11-21T12:36:37.694Z,948.00
2017-11-21T12:37:37.694Z,924.00
2017-11-21T12:38:37.692Z,824.00
2017-11-21T12:39:37.689Z,824.00
2017-11-21T12:40:37.688Z,872.00
2017-11-21T12:41:37.685Z,892.00
2017-11-21T12:42:37.683Z,808.00
2017-11-21T12:43:37.682Z,852.00
2017-11-21T12:44:37.681Z,716.00
2017-11-21T12:45:37.678Z,792.00
2017-11-21T12:46:37.678Z,872.00
2017-11-21T12:47:37.676Z,860.00
2017-11-21T12:48:37.674Z,856.00
2017-11-21T12:49:37.671Z,832.00